Time;durP1;ratioP1;P1;durP2;ratioP2;P2;SDS_P1;SDS_P2;PMS_P1;PMS_P2;Temp;Humidity;BMP_temperature;BMP_pressure;BME280_temperature;BME280_humidity;BME280_pressure;Samples;Min_cycle;Max_cycle;Signal;HPM_P1;HPM_P2
2022/10/26 00:00:26;;;;;;;20.08;11.30;;;10.70;99.90;;;;;;5087644;28;20401;-74
2022/10/26 00:02:53;;;;;;;21.45;11.70;;;10.70;99.90;;;;;;5087756;28;20409;-74
2022/10/26 00:05:19;;;;;;;24.35;12.43;;;10.60;99.90;;;;;;5087463;28;20473;-74
2022/10/26 00:07:44;;;;;;;20.40;11.88;;;10.60;99.90;;;;;;5088419;28;20491;-73
2022/10/26 00:10:10;;;;;;;20.00;12.30;;;10.50;99.90;;;;;;5088589;28;20477;-74
2022/10/26 00:12:35;;;;;;;18.90;12.05;;;10.50;99.90;;;;;;5089507;28;20429;-74
2022/10/26 00:15:01;;;;;;;21.53;13.23;;;10.50;99.90;;;;;;5089441;28;20463;-74
2022/10/26 00:17:27;;;;;;;23.42;12.90;;;10.50;99.90;;;;;;5088651;28;20410;-74
2022/10/26 00:19:53;;;;;;;25.43;13.70;;;10.50;99.90;;;;;;5089170;28;20737;-74
2022/10/26 00:22:19;;;;;;;23.90;13.30;;;10.50;99.90;;;;;;5088765;28;20394;-74
2022/10/26 00:24:45;;;;;;;25.97;13.50;;;10.50;99.90;;;;;;5087584;28;20425;-74
2022/10/26 00:27:10;;;;;;;21.98;13.82;;;10.50;99.90;;;;;;5088412;28;20427;-74
2022/10/26 00:29:36;;;;;;;20.53;13.40;;;10.50;99.90;;;;;;5088530;28;20406;-73
2022/10/26 00:32:01;;;;;;;25.27;13.27;;;10.50;99.90;;;;;;5089058;28;20904;-74
2022/10/26 00:34:27;;;;;;;24.70;13.23;;;10.50;99.90;;;;;;5087171;28;20453;-73
2022/10/26 00:36:52;;;;;;;23.67;13.23;;;10.40;99.90;;;;;;5088276;28;20466;-73
2022/10/26 00:39:19;;;;;;;23.87;13.53;;;10.40;99.90;;;;;;5087393;28;20873;-74
2022/10/26 00:41:44;;;;;;;24.98;13.52;;;10.40;99.90;;;;;;5088560;28;20497;-74
2022/10/26 00:44:47;;;;;;;24.42;13.70;;;10.40;99.90;;;;;;5088389;28;20946;-74
2022/10/26 00:47:17;;;;;;;23.17;13.20;;;10.40;99.90;;;;;;5088053;28;20465;-74
2022/10/26 00:49:46;;;;;;;26.08;13.65;;;10.30;99.90;;;;;;5065037;28;21186;-74
2022/10/26 00:52:13;;;;;;;22.77;13.77;;;10.30;99.90;;;;;;5086193;28;20406;-73
2022/10/26 00:54:39;;;;;;;23.67;13.23;;;10.30;99.90;;;;;;5088645;28;20394;-74
2022/10/26 00:57:05;;;;;;;22.80;13.38;;;10.30;99.90;;;;;;5086991;28;20895;-74
2022/10/26 00:59:32;;;;;;;26.10;13.38;;;10.30;99.90;;;;;;5087214;28;20414;-74
2022/10/26 01:01:57;;;;;;;24.25;13.57;;;10.30;99.90;;;;;;5070528;28;20572;-74
2022/10/26 01:04:23;;;;;;;26.38;14.43;;;10.30;99.90;;;;;;5087336;28;20510;-73
2022/10/26 01:06:50;;;;;;;27.17;14.40;;;10.30;99.90;;;;;;5067034;28;20446;-73
2022/10/26 01:09:17;;;;;;;24.67;13.95;;;10.30;99.90;;;;;;5061530;28;20409;-74
2022/10/26 01:11:43;;;;;;;24.33;14.55;;;10.30;99.90;;;;;;5086824;28;20403;-74
2022/10/26 01:14:11;;;;;;;23.90;14.07;;;10.30;99.90;;;;;;5087029;28;20405;-74
2022/10/26 01:16:48;;;;;;;28.08;14.07;;;10.30;99.90;;;;;;5086763;28;20410;-74
2022/10/26 01:19:50;;;;;;;25.55;13.60;;;10.30;99.90;;;;;;5088165;28;20938;-74
2022/10/26 01:22:30;;;;;;;26.53;14.37;;;10.20;99.90;;;;;;5076774;28;20416;-74
2022/10/26 01:25:14;;;;;;;22.30;13.48;;;10.20;99.90;;;;;;5070451;28;20468;-74
2022/10/26 01:27:44;;;;;;;23.52;13.75;;;10.20;99.90;;;;;;5088094;28;20422;-74
2022/10/26 01:30:25;;;;;;;23.95;13.57;;;10.20;99.90;;;;;;5087346;28;20994;-73
2022/10/26 01:33:15;;;;;;;24.92;13.50;;;10.20;99.90;;;;;;5088397;28;20410;-73
2022/10/26 01:35:57;;;;;;;26.75;13.93;;;10.20;99.90;;;;;;5080328;28;20508;-74
2022/10/26 01:38:42;;;;;;;25.33;14.45;;;10.20;99.90;;;;;;5085552;28;20993;-74
2022/10/26 01:41:30;;;;;;;24.23;13.73;;;10.10;99.90;;;;;;5088455;28;20410;-74
2022/10/26 01:44:15;;;;;;;24.67;14.55;;;10.10;99.90;;;;;;5081107;28;20427;-74
2022/10/26 01:46:44;;;;;;;23.27;14.30;;;10.20;99.90;;;;;;5077265;28;20398;-74
2022/10/26 01:49:13;;;;;;;24.10;14.17;;;10.20;99.90;;;;;;5087837;28;20402;-74
2022/10/26 01:51:42;;;;;;;25.15;14.45;;;10.20;99.90;;;;;;5087519;28;20413;-74
2022/10/26 01:54:07;;;;;;;26.43;14.77;;;10.10;99.90;;;;;;5087912;28;20398;-74
2022/10/26 01:56:39;;;;;;;24.55;14.98;;;10.10;99.90;;;;;;5096958;28;20409;-74
2022/10/26 01:59:25;;;;;;;23.17;14.52;;;10.10;99.90;;;;;;5087978;28;20767;-74
2022/10/26 02:02:19;;;;;;;27.10;14.52;;;10.10;99.90;;;;;;5087809;28;21221;-73
2022/10/26 02:04:47;;;;;;;28.30;14.73;;;10.10;99.90;;;;;;5083720;28;20429;-74
2022/10/26 02:07:31;;;;;;;28.97;15.07;;;10.10;99.90;;;;;;5089437;28;20480;-73
2022/10/26 02:10:00;;;;;;;28.37;14.67;;;10.10;99.90;;;;;;5089223;28;20461;-74
2022/10/26 02:12:43;;;;;;;28.60;15.50;;;10.00;99.90;;;;;;5090081;28;21137;-73
2022/10/26 02:15:14;;;;;;;29.75;15.18;;;10.00;99.90;;;;;;5091388;28;20414;-73
2022/10/26 02:17:59;;;;;;;24.33;14.18;;;10.00;99.90;;;;;;5102132;28;20499;-74
2022/10/26 02:20:32;;;;;;;27.52;14.68;;;10.00;99.90;;;;;;5079577;28;20417;-74
2022/10/26 02:23:02;;;;;;;24.25;15.05;;;10.00;99.90;;;;;;5072747;28;20922;-74
2022/10/26 02:25:35;;;;;;;24.50;14.93;;;10.00;99.90;;;;;;5091464;28;20435;-74
2022/10/26 02:28:09;;;;;;;28.07;14.90;;;10.00;99.90;;;;;;5090165;28;20413;-73
2022/10/26 02:30:37;;;;;;;25.20;15.40;;;10.00;99.90;;;;;;5091366;28;20406;-73
2022/10/26 02:33:06;;;;;;;28.10;15.47;;;10.00;99.90;;;;;;5078805;28;20398;-74
2022/10/26 02:35:35;;;;;;;25.60;15.23;;;10.00;99.90;;;;;;5090888;28;20401;-74
2022/10/26 02:38:05;;;;;;;26.02;14.77;;;10.00;99.90;;;;;;5091348;28;20406;-73
2022/10/26 02:40:33;;;;;;;27.63;14.68;;;10.00;99.90;;;;;;5090934;28;20421;-73
2022/10/26 02:43:05;;;;;;;26.08;14.77;;;10.10;99.90;;;;;;5089969;28;20398;-74
2022/10/26 02:45:37;;;;;;;23.77;15.23;;;10.00;99.90;;;;;;5089104;28;20437;-74
2022/10/26 02:48:03;;;;;;;24.17;14.70;;;10.00;99.90;;;;;;5091403;28;20406;-74
2022/10/26 02:50:50;;;;;;;25.07;14.90;;;10.00;99.90;;;;;;5090848;28;20907;-74
2022/10/26 02:53:26;;;;;;;22.95;14.57;;;9.90;99.90;;;;;;5072690;28;20410;-74
2022/10/26 02:55:52;;;;;;;28.20;15.43;;;10.00;99.90;;;;;;5089606;28;20414;-74
2022/10/26 02:58:23;;;;;;;24.33;14.90;;;10.00;99.90;;;;;;5090720;28;20814;-74
2022/10/26 03:00:50;;;;;;;24.17;14.85;;;10.00;99.90;;;;;;5091194;28;20490;-74
2022/10/26 03:03:17;;;;;;;23.73;13.95;;;9.90;99.90;;;;;;5091007;28;20413;-74
2022/10/26 03:05:43;;;;;;;27.83;14.73;;;9.90;99.90;;;;;;5089176;28;20425;-74
2022/10/26 03:08:08;;;;;;;22.97;14.97;;;9.90;99.90;;;;;;5090032;28;21282;-74
2022/10/26 03:10:41;;;;;;;26.08;14.95;;;9.80;99.90;;;;;;5072532;28;20406;-74
2022/10/26 03:13:07;;;;;;;23.13;14.80;;;9.80;99.90;;;;;;5084887;28;20398;-74
2022/10/26 03:15:33;;;;;;;23.17;13.93;;;9.80;99.90;;;;;;5089196;28;20417;-73
2022/10/26 03:17:58;;;;;;;26.17;14.20;;;9.80;99.90;;;;;;5090021;28;20485;-74
2022/10/26 03:20:24;;;;;;;26.13;14.32;;;9.80;99.90;;;;;;5072663;28;20763;-74
2022/10/26 03:22:50;;;;;;;21.67;14.37;;;9.80;99.90;;;;;;5090234;28;20481;-74
2022/10/26 03:25:15;;;;;;;23.83;14.30;;;9.70;99.90;;;;;;5088939;28;20456;-74
2022/10/26 03:27:41;;;;;;;27.13;15.30;;;9.70;99.90;;;;;;5070917;28;20836;-74
2022/10/26 03:30:07;;;;;;;23.67;14.85;;;9.70;99.90;;;;;;5090594;28;20767;-73
2022/10/26 03:32:33;;;;;;;24.42;14.15;;;9.70;99.90;;;;;;5089625;28;20425;-73
2022/10/26 03:34:59;;;;;;;22.33;14.35;;;9.70;99.90;;;;;;5073395;28;20414;-73
2022/10/26 03:37:24;;;;;;;22.90;13.87;;;9.60;99.90;;;;;;5091622;28;20406;-74
2022/10/26 03:39:50;;;;;;;22.60;14.45;;;9.60;99.90;;;;;;5079553;28;20898;-74
2022/10/26 03:42:16;;;;;;;23.55;14.77;;;9.50;99.90;;;;;;5093537;28;20497;-74
2022/10/26 03:44:42;;;;;;;26.90;14.87;;;9.50;99.90;;;;;;5089744;28;21016;-74
2022/10/26 03:47:07;;;;;;;24.10;15.02;;;9.50;99.90;;;;;;5092243;28;20765;-74
2022/10/26 03:49:34;;;;;;;25.30;14.30;;;9.50;99.90;;;;;;5089469;28;20402;-74
2022/10/26 03:52:00;;;;;;;30.05;15.90;;;9.50;99.90;;;;;;5088018;28;20415;-75
2022/10/26 03:54:26;;;;;;;26.57;15.27;;;9.50;99.90;;;;;;5088296;28;20923;-75
2022/10/26 03:56:52;;;;;;;27.17;15.80;;;9.50;99.90;;;;;;5089471;28;20410;-74
2022/10/26 03:59:17;;;;;;;29.63;15.50;;;9.50;99.90;;;;;;5088083;28;20485;-74
2022/10/26 04:01:43;;;;;;;25.83;16.53;;;9.50;99.90;;;;;;5089296;28;20410;-74
2022/10/26 04:04:09;;;;;;;26.02;16.73;;;9.50;99.90;;;;;;5067488;28;20494;-74
2022/10/26 04:06:34;;;;;;;29.33;17.33;;;9.50;99.90;;;;;;5087843;28;20433;-74
2022/10/26 04:09:01;;;;;;;30.13;17.70;;;9.50;99.90;;;;;;5089126;28;20394;-74
2022/10/26 04:11:30;;;;;;;31.83;18.00;;;9.60;99.90;;;;;;5088066;28;20768;-74
2022/10/26 04:13:58;;;;;;;29.38;17.73;;;9.60;99.90;;;;;;5089492;28;20421;-74
2022/10/26 04:16:24;;;;;;;29.10;17.85;;;9.60;99.90;;;;;;5087749;28;20402;-74
2022/10/26 04:18:50;;;;;;;30.13;17.77;;;9.60;99.90;;;;;;5088692;28;20451;-74
2022/10/26 04:21:16;;;;;;;29.48;17.95;;;9.60;99.90;;;;;;5070580;28;20465;-74
2022/10/26 04:23:42;;;;;;;30.00;18.50;;;9.60;99.90;;;;;;5081287;28;20404;-74
2022/10/26 04:26:07;;;;;;;30.33;18.17;;;9.60;99.90;;;;;;5085521;28;20429;-74
2022/10/26 04:28:33;;;;;;;30.37;17.50;;;9.60;99.90;;;;;;5087801;28;20394;-74
2022/10/26 04:30:59;;;;;;;28.73;17.88;;;9.60;99.90;;;;;;5087626;28;20441;-74
2022/10/26 04:33:24;;;;;;;33.20;18.63;;;9.60;99.90;;;;;;5099677;28;20903;-74
2022/10/26 04:35:50;;;;;;;28.95;18.10;;;9.60;99.90;;;;;;5089743;28;20406;-74
2022/10/26 04:38:16;;;;;;;29.97;17.63;;;9.60;99.90;;;;;;5088626;28;20882;-74
2022/10/26 04:40:41;;;;;;;35.25;19.50;;;9.60;99.90;;;;;;5087587;28;20427;-74
2022/10/26 04:43:07;;;;;;;29.40;17.83;;;9.60;99.90;;;;;;5088486;28;20517;-74
2022/10/26 04:45:32;;;;;;;32.25;18.40;;;9.60;99.90;;;;;;5087138;28;20425;-74
2022/10/26 04:48:02;;;;;;;32.47;19.00;;;9.60;99.90;;;;;;5088445;28;20903;-74
2022/10/26 04:50:28;;;;;;;31.97;19.60;;;9.60;99.90;;;;;;5089182;28;20406;-74
2022/10/26 04:52:54;;;;;;;29.17;18.67;;;9.60;99.90;;;;;;5081298;28;20403;-74
2022/10/26 04:55:19;;;;;;;33.38;18.98;;;9.60;99.90;;;;;;5087138;28;20483;-74
2022/10/26 04:57:45;;;;;;;34.60;19.40;;;9.60;99.90;;;;;;5088503;28;20484;-74
2022/10/26 05:00:11;;;;;;;35.17;18.50;;;9.60;99.90;;;;;;5087116;28;20863;-74
2022/10/26 05:02:37;;;;;;;33.22;18.27;;;9.60;99.90;;;;;;5088292;28;20407;-74
2022/10/26 05:05:02;;;;;;;30.40;18.40;;;9.70;99.90;;;;;;5088795;28;20417;-74
2022/10/26 05:07:28;;;;;;;31.17;18.88;;;9.70;99.90;;;;;;5088317;28;20406;-74
2022/10/26 05:09:54;;;;;;;33.33;18.53;;;9.70;99.90;;;;;;5087603;28;20472;-74
2022/10/26 05:12:19;;;;;;;28.63;18.17;;;9.70;99.90;;;;;;5086994;28;20486;-74
2022/10/26 05:14:45;;;;;;;30.75;18.50;;;9.70;99.90;;;;;;5087838;28;20911;-74
2022/10/26 05:17:11;;;;;;;33.47;18.40;;;9.70;99.90;;;;;;5087977;28;20401;-74
2022/10/26 05:19:36;;;;;;;33.45;18.58;;;9.70;99.90;;;;;;5089010;28;20424;-74
2022/10/26 05:22:03;;;;;;;31.57;18.27;;;9.70;99.90;;;;;;5088150;28;20822;-73
2022/10/26 05:24:29;;;;;;;33.05;18.58;;;9.70;99.90;;;;;;5097072;28;20959;-74
2022/10/26 05:26:54;;;;;;;30.70;18.45;;;9.80;99.90;;;;;;5086552;28;20414;-74
2022/10/26 05:29:20;;;;;;;33.37;18.70;;;9.80;99.90;;;;;;5087713;28;20467;-74
2022/10/26 05:31:45;;;;;;;30.60;17.90;;;9.80;99.90;;;;;;5087953;28;20479;-75
2022/10/26 05:34:11;;;;;;;32.83;18.07;;;9.80;99.90;;;;;;5076051;28;20410;-74
2022/10/26 05:36:37;;;;;;;33.47;18.25;;;9.80;99.90;;;;;;5087546;28;20410;-74
2022/10/26 05:39:02;;;;;;;31.17;17.73;;;9.80;99.90;;;;;;5087272;28;20451;-74
2022/10/26 05:41:28;;;;;;;34.75;18.70;;;9.90;99.90;;;;;;5086541;28;20416;-75
2022/10/26 05:43:54;;;;;;;30.67;17.53;;;9.80;99.90;;;;;;5090634;28;21106;-75
2022/10/26 05:46:19;;;;;;;30.85;17.42;;;9.90;99.90;;;;;;5079712;28;20459;-74
2022/10/26 05:48:45;;;;;;;25.40;17.40;;;9.90;99.90;;;;;;5073378;28;20443;-74
2022/10/26 05:51:11;;;;;;;31.88;17.88;;;9.90;99.90;;;;;;5087146;28;20422;-74
2022/10/26 05:53:37;;;;;;;26.95;17.15;;;10.00;99.90;;;;;;5082770;28;20431;-74
2022/10/26 05:56:17;;;;;;;28.77;16.85;;;10.00;99.90;;;;;;5073448;28;20527;-75
2022/10/26 05:58:43;;;;;;;31.00;16.85;;;10.00;99.90;;;;;;5091638;28;20402;-74
2022/10/26 06:01:18;;;;;;;27.30;16.05;;;10.10;99.90;;;;;;5090219;28;20414;-75
2022/10/26 06:04:19;;;;;;;29.10;16.02;;;10.10;99.90;;;;;;5089966;28;20417;-74
2022/10/26 06:06:48;;;;;;;28.15;16.20;;;10.10;99.90;;;;;;5076999;28;20982;-75
2022/10/26 06:09:14;;;;;;;24.35;15.80;;;10.20;99.90;;;;;;5100939;28;20426;-75
2022/10/26 06:11:40;;;;;;;29.23;15.80;;;10.20;99.90;;;;;;5089511;28;20444;-74
2022/10/26 06:14:07;;;;;;;26.88;15.07;;;10.20;99.90;;;;;;5073294;28;20405;-75
2022/10/26 06:16:40;;;;;;;24.05;14.98;;;10.20;99.90;;;;;;5088856;28;20406;-75
2022/10/26 06:19:17;;;;;;;25.92;15.68;;;10.20;99.90;;;;;;5091198;28;20492;-75
2022/10/26 06:21:55;;;;;;;26.35;15.77;;;10.20;99.90;;;;;;5073183;28;20505;-74
2022/10/26 06:24:56;;;;;;;23.13;14.27;;;10.20;99.90;;;;;;5090774;28;20444;-75
2022/10/26 06:27:43;;;;;;;26.83;15.38;;;10.30;99.90;;;;;;5036334;28;20454;-75
2022/10/26 06:30:10;;;;;;;25.88;14.48;;;10.30;99.90;;;;;;5076642;28;20471;-74
2022/10/26 06:32:42;;;;;;;24.05;14.27;;;10.30;99.90;;;;;;5089632;28;20413;-75
2022/10/26 06:35:22;;;;;;;23.97;14.47;;;10.30;99.90;;;;;;5091019;28;20402;-75
2022/10/26 06:37:48;;;;;;;22.83;14.18;;;10.30;99.90;;;;;;5089767;28;20414;-75
2022/10/26 06:40:16;;;;;;;22.70;14.00;;;10.30;99.90;;;;;;5098280;28;20403;-75
2022/10/26 06:42:42;;;;;;;23.27;14.02;;;10.30;99.90;;;;;;5090984;28;20441;-75
2022/10/26 06:45:12;;;;;;;21.40;12.48;;;10.30;99.90;;;;;;5090078;28;20422;-74
2022/10/26 06:47:56;;;;;;;23.00;13.80;;;10.30;99.90;;;;;;5089773;28;20796;-75
2022/10/26 06:50:36;;;;;;;22.42;12.45;;;10.30;99.90;;;;;;5088240;28;20415;-75
2022/10/26 06:53:19;;;;;;;23.15;13.35;;;10.40;99.90;;;;;;5078715;28;20980;-75
2022/10/26 06:55:47;;;;;;;23.00;12.93;;;10.40;99.90;;;;;;5089674;28;20525;-75
2022/10/26 06:58:22;;;;;;;21.17;12.43;;;10.40;99.90;;;;;;5088553;28;20406;-74
2022/10/26 07:00:50;;;;;;;18.33;11.47;;;10.50;99.90;;;;;;5088500;28;20425;-74
2022/10/26 07:03:16;;;;;;;20.48;11.60;;;10.50;99.90;;;;;;5088028;28;20460;-75
2022/10/26 07:05:43;;;;;;;18.87;11.33;;;10.50;99.90;;;;;;5089784;28;20803;-75
2022/10/26 07:08:09;;;;;;;18.48;10.80;;;10.60;99.90;;;;;;5088735;28;20398;-75
2022/10/26 07:10:37;;;;;;;16.17;10.50;;;10.60;99.90;;;;;;5071440;28;20422;-74
2022/10/26 07:13:04;;;;;;;18.85;11.05;;;10.70;99.90;;;;;;5088407;28;20508;-74
2022/10/26 07:15:30;;;;;;;15.45;9.90;;;10.70;99.90;;;;;;5089541;28;20574;-74
2022/10/26 07:17:56;;;;;;;15.93;10.27;;;10.70;99.90;;;;;;5087614;28;20919;-74
2022/10/26 07:20:21;;;;;;;17.27;10.50;;;10.80;99.90;;;;;;5087765;28;20410;-75
2022/10/26 07:22:51;;;;;;;15.95;10.48;;;10.80;99.90;;;;;;5089146;28;20907;-74
2022/10/26 07:25:17;;;;;;;16.20;9.43;;;10.80;99.90;;;;;;5088958;28;20418;-75
2022/10/26 07:27:43;;;;;;;16.73;10.00;;;10.90;99.90;;;;;;5090243;28;20394;-74
2022/10/26 07:30:09;;;;;;;18.97;9.27;;;10.90;99.90;;;;;;5089394;28;20394;-75
2022/10/26 07:32:35;;;;;;;14.50;9.30;;;10.90;99.90;;;;;;5088618;28;20429;-75
2022/10/26 07:35:00;;;;;;;14.95;9.57;;;11.00;99.90;;;;;;5088856;28;20394;-75
2022/10/26 07:37:26;;;;;;;15.50;9.13;;;11.00;99.90;;;;;;5024987;28;1769303;-75
2022/10/26 07:39:52;;;;;;;17.13;8.73;;;11.00;99.90;;;;;;5090174;28;20406;-75
2022/10/26 07:42:18;;;;;;;16.25;9.20;;;11.10;99.90;;;;;;5087752;28;20470;-74
2022/10/26 07:44:43;;;;;;;15.18;9.00;;;11.10;99.90;;;;;;5089185;28;20406;-75
2022/10/26 07:47:09;;;;;;;13.13;9.07;;;11.20;99.90;;;;;;5085251;28;20407;-75
2022/10/26 07:49:35;;;;;;;14.07;8.82;;;11.20;99.90;;;;;;5088248;28;20467;-74
2022/10/26 07:52:00;;;;;;;17.23;9.93;;;11.30;99.90;;;;;;5088956;28;20764;-75
2022/10/26 07:54:26;;;;;;;16.10;9.52;;;11.30;99.90;;;;;;5088502;28;20452;-75
2022/10/26 07:56:52;;;;;;;15.20;9.37;;;11.30;99.90;;;;;;5089885;28;20485;-75
2022/10/26 07:59:17;;;;;;;16.67;9.93;;;11.40;99.90;;;;;;5088107;28;20410;-75
2022/10/26 08:01:43;;;;;;;13.77;8.93;;;11.30;99.90;;;;;;5089771;28;20402;-75
2022/10/26 08:04:09;;;;;;;13.05;9.02;;;11.40;99.90;;;;;;5088330;28;20737;-75
2022/10/26 08:06:34;;;;;;;15.73;9.57;;;11.40;99.90;;;;;;5087088;28;20441;-75
2022/10/26 08:09:00;;;;;;;13.57;8.77;;;11.50;99.90;;;;;;5088423;28;20957;-75
2022/10/26 08:11:26;;;;;;;15.98;9.27;;;11.50;99.90;;;;;;5087131;28;20410;-75
2022/10/26 08:13:52;;;;;;;15.37;10.00;;;11.60;99.90;;;;;;5089581;28;20406;-74
2022/10/26 08:16:18;;;;;;;12.13;9.30;;;11.70;99.90;;;;;;5088992;28;20409;-74
2022/10/26 08:18:47;;;;;;;15.68;9.02;;;11.70;99.90;;;;;;5088955;28;20402;-74
2022/10/26 08:21:13;;;;;;;12.75;8.70;;;11.70;99.90;;;;;;5084206;28;20390;-74
2022/10/26 08:23:38;;;;;;;13.67;8.60;;;11.80;99.90;;;;;;5095713;28;20761;-75
2022/10/26 08:26:04;;;;;;;13.50;8.87;;;11.90;99.90;;;;;;5093723;28;20426;-74
2022/10/26 08:28:30;;;;;;;15.25;8.68;;;11.90;99.90;;;;;;5087596;28;20520;-75
2022/10/26 08:30:56;;;;;;;15.10;8.63;;;12.00;99.90;;;;;;5070886;28;20443;-75
2022/10/26 08:33:23;;;;;;;13.60;8.80;;;12.10;99.90;;;;;;5088816;28;20539;-75
2022/10/26 08:35:54;;;;;;;13.38;8.25;;;12.20;99.90;;;;;;5087446;28;20409;-75
2022/10/26 08:38:20;;;;;;;13.23;8.38;;;12.30;99.90;;;;;;5088739;28;20409;-75
2022/10/26 08:40:45;;;;;;;11.65;7.70;;;12.40;99.90;;;;;;5087206;28;20418;-75
2022/10/26 08:43:15;;;;;;;14.33;8.33;;;12.40;99.90;;;;;;5089299;28;20405;-74
2022/10/26 08:46:08;;;;;;;16.13;8.15;;;12.50;99.90;;;;;;5088172;28;20520;-76
2022/10/26 08:48:44;;;;;;;13.20;8.05;;;12.50;99.90;;;;;;5087582;28;20444;-76
2022/10/26 08:51:21;;;;;;;11.13;7.88;;;12.60;99.90;;;;;;5088841;28;20410;-74
2022/10/26 08:53:52;;;;;;;9.65;7.22;;;12.70;99.90;;;;;;5070456;28;20907;-73
2022/10/26 08:56:25;;;;;;;12.55;6.97;;;12.80;99.90;;;;;;5088865;28;20454;-74
2022/10/26 08:59:12;;;;;;;9.68;7.18;;;12.90;99.90;;;;;;5088013;28;20413;-74
2022/10/26 09:01:38;;;;;;;12.20;7.43;;;13.00;99.90;;;;;;5087000;28;20414;-73
2022/10/26 09:04:11;;;;;;;12.52;8.07;;;13.20;99.90;;;;;;5094010;28;20410;-73
2022/10/26 09:06:54;;;;;;;10.27;6.70;;;13.20;99.90;;;;;;5070428;28;21291;-73
2022/10/26 09:09:19;;;;;;;12.45;6.45;;;13.40;99.90;;;;;;5097442;28;20414;-74
2022/10/26 09:12:13;;;;;;;10.47;5.53;;;13.50;99.90;;;;;;5087827;28;20421;-74
2022/10/26 09:15:08;;;;;;;9.27;5.55;;;13.60;99.90;;;;;;5086749;28;20429;-73
2022/10/26 09:18:03;;;;;;;11.63;5.13;;;13.80;99.90;;;;;;5087925;28;20406;-73
2022/10/26 09:20:31;;;;;;;8.68;5.55;;;14.30;99.90;;;;;;5081824;28;20406;-73
2022/10/26 09:23:06;;;;;;;9.25;5.20;;;14.60;99.90;;;;;;5086455;28;20551;-73
2022/10/26 09:25:38;;;;;;;8.57;5.32;;;14.70;99.90;;;;;;5088088;28;20457;-73
2022/10/26 09:28:07;;;;;;;8.20;4.90;;;14.70;99.90;;;;;;5093960;28;20847;-74
2022/10/26 09:30:34;;;;;;;8.35;4.20;;;14.70;99.90;;;;;;5088335;28;20402;-74
2022/10/26 09:33:16;;;;;;;7.00;4.38;;;15.50;99.90;;;;;;5069540;28;20491;-74
2022/10/26 09:36:15;;;;;;;8.10;4.03;;;16.60;99.90;;;;;;5085666;28;20417;-74
2022/10/26 09:38:43;;;;;;;8.57;3.80;;;17.90;99.90;;;;;;5087638;28;20765;-74
2022/10/26 09:41:33;;;;;;;8.33;4.07;;;18.90;99.90;;;;;;5087100;28;20420;-75
2022/10/26 09:44:25;;;;;;;6.07;3.50;;;19.40;99.90;;;;;;5087034;28;20944;-74
2022/10/26 09:47:04;;;;;;;6.87;3.00;;;19.90;99.90;;;;;;5086580;28;20866;-74
2022/10/26 09:49:47;;;;;;;4.88;2.63;;;20.30;99.90;;;;;;5086499;28;20410;-74
2022/10/26 09:52:14;;;;;;;6.80;2.67;;;20.60;99.90;;;;;;5086465;28;20418;-74
2022/10/26 09:54:39;;;;;;;5.40;2.38;;;20.60;99.90;;;;;;5087662;28;20390;-74
2022/10/26 09:57:07;;;;;;;4.83;2.33;;;20.10;99.90;;;;;;5085387;28;20416;-75
2022/10/26 09:59:37;;;;;;;6.38;2.40;;;19.60;99.90;;;;;;5087523;28;20417;-74
2022/10/26 10:02:42;;;;;;;4.68;2.60;;;19.40;99.90;;;;;;5069476;28;20413;-74
2022/10/26 10:05:23;;;;;;;4.70;2.30;;;19.40;99.90;;;;;;5065894;28;20443;-74
2022/10/26 10:07:48;;;;;;;6.30;2.63;;;19.90;99.90;;;;;;5069050;28;20410;-74
2022/10/26 10:10:21;;;;;;;5.77;2.10;;;20.60;99.90;;;;;;5085966;28;20494;-74
2022/10/26 10:12:51;;;;;;;5.78;2.20;;;21.20;99.90;;;;;;5087293;28;20934;-74
2022/10/26 10:15:22;;;;;;;6.10;2.28;;;21.60;99.90;;;;;;5085892;28;20443;-74
2022/10/26 10:17:54;;;;;;;4.50;2.03;;;21.80;99.90;;;;;;5092467;28;20406;-74
2022/10/26 10:20:38;;;;;;;6.07;2.33;;;22.10;99.90;;;;;;5087457;28;20494;-75
2022/10/26 10:23:04;;;;;;;5.53;2.30;;;22.70;99.90;;;;;;5087609;28;20414;-74
2022/10/26 10:25:35;;;;;;;6.93;2.20;;;23.10;99.90;;;;;;5087233;28;20426;-74
2022/10/26 10:28:22;;;;;;;7.28;2.35;;;23.50;99.90;;;;;;5087412;28;20493;-74
2022/10/26 10:30:58;;;;;;;6.13;1.90;;;24.00;99.90;;;;;;5089189;28;20445;-75
2022/10/26 10:33:41;;;;;;;5.50;1.70;;;24.40;99.90;;;;;;5089434;28;20858;-74
2022/10/26 10:36:12;;;;;;;5.25;1.75;;;24.80;99.90;;;;;;5090520;28;20488;-74
2022/10/26 10:38:47;;;;;;;5.60;1.83;;;24.90;99.90;;;;;;5089797;28;20429;-75
2022/10/26 10:41:25;;;;;;;4.20;1.53;;;24.70;99.90;;;;;;5093180;28;20405;-75
2022/10/26 10:44:13;;;;;;;4.47;1.40;;;24.60;99.90;;;;;;5090802;28;20405;-74
2022/10/26 10:46:39;;;;;;;6.45;1.65;;;24.70;99.90;;;;;;5090442;28;20468;-75
2022/10/26 10:49:15;;;;;;;5.63;1.50;;;25.00;99.90;;;;;;5089604;28;20449;-75
2022/10/26 10:51:42;;;;;;;4.03;1.50;;;25.20;99.90;;;;;;5100490;28;20411;-75
2022/10/26 10:54:19;;;;;;;4.75;1.50;;;25.40;99.90;;;;;;5089952;28;20764;-75
2022/10/26 10:56:52;;;;;;;3.47;1.40;;;25.50;99.90;;;;;;5086475;28;20409;-75
2022/10/26 10:59:37;;;;;;;4.35;1.70;;;25.50;99.90;;;;;;5090032;28;20406;-75
2022/10/26 11:02:33;;;;;;;6.95;1.92;;;24.90;99.90;;;;;;5089403;28;20419;-75
2022/10/26 11:05:34;;;;;;;4.35;1.80;;;23.90;99.90;;;;;;5089895;28;20448;-74
2022/10/26 11:08:08;;;;;;;5.93;2.00;;;23.20;99.90;;;;;;5088009;28;20418;-74
2022/10/26 11:10:50;;;;;;;5.85;1.73;;;22.60;99.90;;;;;;5088203;28;20410;-74
2022/10/26 11:13:24;;;;;;;4.17;1.70;;;22.50;99.90;;;;;;5088171;28;20485;-75
2022/10/26 11:15:57;;;;;;;6.03;1.90;;;22.60;99.90;;;;;;5089242;28;20417;-76
2022/10/26 11:18:40;;;;;;;7.53;1.90;;;22.10;99.90;;;;;;5089214;28;20943;-75
2022/10/26 11:21:29;;;;;;;6.22;2.20;;;21.60;99.90;;;;;;5088842;28;20406;-75
2022/10/26 11:24:34;;;;;;;5.43;2.03;;;21.20;99.90;;;;;;5089188;28;20459;-75
2022/10/26 11:27:28;;;;;;;6.05;2.40;;;20.70;99.90;;;;;;5087796;28;20440;-74
2022/10/26 11:30:02;;;;;;;5.78;1.98;;;20.30;99.90;;;;;;5058130;28;20403;-74
2022/10/26 11:32:55;;;;;;;7.32;2.30;;;20.00;99.90;;;;;;5083805;28;20405;-74
2022/10/26 11:35:25;;;;;;;5.35;2.33;;;19.90;99.90;;;;;;5089060;28;20500;-74
2022/10/26 11:38:12;;;;;;;5.80;2.30;;;19.80;99.90;;;;;;5088198;28;20449;-75
2022/10/26 11:40:52;;;;;;;5.75;2.10;;;19.70;99.90;;;;;;5085876;28;20775;-74
2022/10/26 11:43:36;;;;;;;4.50;2.27;;;19.80;99.90;;;;;;5085187;28;20414;-75
2022/10/26 11:46:08;;;;;;;5.73;2.17;;;19.90;99.90;;;;;;5087807;28;20469;-74
2022/10/26 11:48:42;;;;;;;5.03;2.08;;;20.00;99.90;;;;;;5087895;28;20421;-74
2022/10/26 11:51:17;;;;;;;8.45;2.38;;;20.40;99.90;;;;;;5095539;28;20388;-75
2022/10/26 11:53:46;;;;;;;6.60;2.20;;;21.30;99.90;;;;;;5093252;28;20460;-75
2022/10/26 11:56:43;;;;;;;5.70;2.00;;;22.20;99.90;;;;;;5089707;28;20394;-75
2022/10/26 11:59:18;;;;;;;6.57;1.90;;;22.80;99.90;;;;;;5067589;28;20418;-75
2022/10/26 12:01:54;;;;;;;6.60;2.05;;;23.50;99.90;;;;;;5075177;28;20419;-75
2022/10/26 12:04:24;;;;;;;8.30;1.90;;;23.80;99.90;;;;;;5071262;28;20410;-75
2022/10/26 12:06:53;;;;;;;4.38;1.67;;;23.70;99.90;;;;;;5089068;28;20487;-75
2022/10/26 12:09:28;;;;;;;9.10;2.00;;;23.60;99.90;;;;;;5089224;28;20432;-75
2022/10/26 12:12:18;;;;;;;4.30;1.50;;;23.20;99.90;;;;;;5079826;28;20406;-75
2022/10/26 12:14:56;;;;;;;5.95;1.92;;;22.60;99.90;;;;;;5089000;28;20406;-75
2022/10/26 12:17:28;;;;;;;5.13;1.58;;;22.10;99.90;;;;;;5078666;28;20511;-74
2022/10/26 12:20:34;;;;;;;5.00;1.98;;;21.60;99.90;;;;;;5091746;28;20413;-75
2022/10/26 12:23:03;;;;;;;5.88;1.60;;;21.20;99.90;;;;;;5088761;28;20410;-74
2022/10/26 12:25:28;;;;;;;5.90;1.73;;;20.80;99.90;;;;;;5088938;28;20441;-74
2022/10/26 12:27:57;;;;;;;5.53;1.97;;;20.50;99.90;;;;;;5087528;28;20907;-74
2022/10/26 12:30:31;;;;;;;6.97;1.80;;;20.30;99.90;;;;;;5089238;28;20406;-74
2022/10/26 12:33:21;;;;;;;6.50;1.60;;;20.20;99.90;;;;;;5088415;28;20498;-74
2022/10/26 12:35:47;;;;;;;7.47;1.90;;;20.00;99.90;;;;;;5076081;28;20771;-74
2022/10/26 12:38:24;;;;;;;6.05;1.70;;;19.80;99.90;;;;;;5087451;28;20405;-74
2022/10/26 12:41:06;;;;;;;5.03;1.52;;;19.70;99.90;;;;;;5096929;28;20418;-74
2022/10/26 12:43:39;;;;;;;4.75;1.33;;;19.70;99.90;;;;;;5088067;28;20421;-75
2022/10/26 12:46:14;;;;;;;6.40;1.90;;;19.70;99.90;;;;;;5087011;28;20444;-74
2022/10/26 12:48:49;;;;;;;5.50;1.73;;;19.80;99.90;;;;;;5088047;28;20441;-74
2022/10/26 12:51:18;;;;;;;5.97;2.03;;;19.80;99.90;;;;;;5095361;28;20415;-74
2022/10/26 12:54:01;;;;;;;5.25;1.83;;;19.80;99.90;;;;;;5090957;28;20410;-74
2022/10/26 12:56:49;;;;;;;5.28;1.67;;;20.00;99.90;;;;;;5086899;28;20486;-74
2022/10/26 12:59:20;;;;;;;5.95;1.70;;;20.80;99.90;;;;;;5076514;28;21110;-75